createdAt,value
2019-02-06T00:00:26.728Z,20.30
2019-02-06T00:00:53.693Z,18.87
2019-02-06T00:01:24.894Z,19.45
2019-02-06T00:01:56.129Z,19.23
2019-02-06T00:02:27.345Z,18.67
2019-02-06T00:02:58.577Z,19.27
2019-02-06T00:03:30.186Z,19.70
2019-02-06T00:04:01.404Z,18.62
2019-02-06T00:04:32.605Z,18.20
2019-02-06T00:05:13.911Z,19.32
2019-02-06T00:05:36.749Z,18.70
2019-02-06T00:06:07.958Z,19.27
2019-02-06T00:06:39.162Z,19.62
2019-02-06T00:07:10.372Z,19.35
2019-02-06T00:07:41.597Z,19.25
2019-02-06T00:08:12.874Z,18.85
2019-02-06T00:08:44.203Z,19.12
2019-02-06T00:09:15.919Z,18.73
2019-02-06T00:09:47.155Z,20.30
2019-02-06T00:10:18.368Z,19.52
2019-02-06T00:10:49.570Z,18.02
2019-02-06T00:11:20.830Z,18.92
2019-02-06T00:11:52.042Z,18.82
2019-02-06T00:12:23.255Z,19.02
2019-02-06T00:12:54.473Z,19.65
2019-02-06T00:13:25.764Z,19.55
2019-02-06T00:13:57.338Z,19.57
2019-02-06T00:14:28.594Z,19.62
2019-02-06T00:14:59.804Z,19.70
2019-02-06T00:15:31.235Z,19.55
2019-02-06T00:16:02.512Z,20.08
2019-02-06T00:16:33.836Z,20.57
2019-02-06T00:17:05.075Z,19.65
2019-02-06T00:17:36.373Z,19.92
2019-02-06T00:18:07.636Z,20.20
2019-02-06T00:18:38.833Z,19.55
2019-02-06T00:19:10.097Z,19.17
2019-02-06T00:19:41.550Z,20.27
2019-02-06T00:20:12.770Z,19.55
2019-02-06T00:20:44.012Z,20.40
2019-02-06T00:21:15.241Z,19.57
2019-02-06T00:21:46.514Z,19.17
2019-02-06T00:22:17.741Z,20.35
2019-02-06T00:22:48.947Z,20.25
2019-02-06T00:23:20.158Z,20.02
2019-02-06T00:23:51.421Z,19.87
2019-02-06T00:24:23.661Z,19.95
2019-02-06T00:24:54.886Z,20.05
2019-02-06T00:25:26.387Z,20.17
2019-02-06T00:25:57.600Z,20.43
2019-02-06T00:26:28.834Z,20.65
2019-02-06T00:27:00.076Z,20.35
2019-02-06T00:27:31.300Z,20.95
2019-02-06T00:28:02.523Z,20.92
2019-02-06T00:28:33.744Z,21.10
2019-02-06T00:29:04.996Z,20.72
2019-02-06T00:29:36.215Z,20.70
2019-02-06T00:30:07.423Z,21.42
2019-02-06T00:30:38.637Z,21.82
2019-02-06T00:31:10.328Z,20.48
2019-02-06T00:31:41.540Z,21.30
2019-02-06T00:32:12.760Z,20.05
2019-02-06T00:32:44.044Z,21.45
2019-02-06T00:33:15.328Z,20.62
2019-02-06T00:33:46.552Z,21.65
2019-02-06T00:34:17.777Z,20.62
2019-02-06T00:34:49.017Z,20.57
2019-02-06T00:35:25.691Z,21.02
2019-02-06T00:35:53.195Z,17.48
2019-02-06T00:36:24.412Z,19.62
2019-02-06T00:36:55.810Z,19.25
2019-02-06T00:37:27.058Z,20.43
2019-02-06T00:37:58.312Z,19.60
2019-02-06T00:38:29.562Z,19.07
2019-02-06T00:39:00.778Z,17.85
2019-02-06T00:39:31.982Z,19.07
2019-02-06T00:40:03.305Z,21.17
2019-02-06T00:40:34.521Z,21.70
2019-02-06T00:41:05.762Z,22.60
2019-02-06T00:41:36.991Z,22.22
2019-02-06T00:42:08.223Z,22.42
2019-02-06T00:42:39.726Z,22.58
2019-02-06T00:43:10.942Z,23.12
2019-02-06T00:43:42.225Z,23.92
2019-02-06T00:44:13.435Z,23.32
2019-02-06T00:44:44.647Z,22.67
2019-02-06T00:45:15.880Z,23.60
2019-02-06T00:45:47.081Z,23.45
2019-02-06T00:46:18.320Z,24.00
2019-02-06T00:46:49.543Z,23.98
2019-02-06T00:47:20.755Z,23.52
2019-02-06T00:47:51.991Z,24.70
2019-02-06T00:48:23.481Z,23.42
2019-02-06T00:48:54.760Z,23.45
2019-02-06T00:49:25.971Z,24.57
2019-02-06T00:49:57.175Z,24.37
2019-02-06T00:50:28.398Z,25.27
2019-02-06T00:50:59.588Z,24.50
2019-02-06T00:51:30.821Z,24.60
2019-02-06T00:52:02.047Z,24.60
2019-02-06T00:52:33.308Z,22.05
2019-02-06T00:53:04.516Z,22.30
2019-02-06T00:53:35.733Z,22.60
2019-02-06T00:54:07.280Z,21.70
2019-02-06T00:54:38.488Z,22.25
2019-02-06T00:55:09.699Z,23.73
2019-02-06T00:55:40.912Z,26.52
2019-02-06T00:56:12.123Z,26.52
2019-02-06T00:56:43.348Z,25.72
2019-02-06T00:57:14.548Z,24.65
2019-02-06T00:57:45.788Z,24.72
2019-02-06T00:58:17.006Z,24.67
2019-02-06T00:58:48.232Z,25.17
2019-02-06T00:59:19.445Z,24.80
2019-02-06T00:59:50.950Z,26.62
2019-02-06T01:00:22.233Z,25.82
2019-02-06T01:00:53.440Z,26.52
2019-02-06T01:01:24.647Z,26.23
2019-02-06T01:01:55.870Z,26.07
2019-02-06T01:02:27.112Z,26.48
2019-02-06T01:02:58.365Z,25.88
2019-02-06T01:03:29.568Z,26.97
2019-02-06T01:04:00.779Z,25.88
2019-02-06T01:04:32.140Z,25.40
2019-02-06T01:05:03.342Z,26.17
2019-02-06T01:05:38.541Z,26.73
2019-02-06T01:06:07.932Z,26.10
2019-02-06T01:06:39.147Z,25.85
2019-02-06T01:07:10.360Z,26.45
2019-02-06T01:07:41.575Z,26.90
2019-02-06T01:08:12.784Z,26.02
2019-02-06T01:08:43.992Z,25.55
2019-02-06T01:09:15.203Z,25.95
2019-02-06T01:09:46.406Z,23.80
2019-02-06T01:10:17.820Z,25.68
2019-02-06T01:10:49.032Z,25.40
2019-02-06T01:11:20.677Z,24.98
2019-02-06T01:11:51.885Z,25.80
2019-02-06T01:12:23.090Z,25.95
2019-02-06T01:12:54.299Z,24.92
2019-02-06T01:13:25.536Z,25.27
2019-02-06T01:13:56.748Z,25.00
2019-02-06T01:14:30.264Z,24.55
2019-02-06T01:15:03.773Z,24.70
2019-02-06T01:15:34.986Z,24.45
2019-02-06T01:16:06.250Z,24.50
2019-02-06T01:16:37.458Z,23.92
2019-02-06T01:17:09.318Z,23.27
2019-02-06T01:17:40.527Z,22.87
2019-02-06T01:18:11.798Z,21.75
2019-02-06T01:18:43.001Z,19.32
2019-02-06T01:19:14.265Z,20.88
2019-02-06T01:19:45.459Z,18.32
2019-02-06T01:20:16.686Z,17.52
2019-02-06T01:20:47.915Z,18.17
2019-02-06T01:21:19.138Z,18.25
2019-02-06T01:21:51.300Z,15.45
2019-02-06T01:22:22.563Z,15.23
2019-02-06T01:22:54.244Z,15.43
2019-02-06T01:23:25.452Z,16.32
2019-02-06T01:23:56.682Z,18.02
2019-02-06T01:24:27.903Z,16.42
2019-02-06T01:24:59.180Z,17.57
2019-02-06T01:25:30.391Z,17.73
2019-02-06T01:26:01.603Z,18.32
2019-02-06T01:26:32.812Z,16.27
2019-02-06T01:27:04.085Z,17.02
2019-02-06T01:27:35.469Z,18.48
2019-02-06T01:28:06.678Z,17.95
2019-02-06T01:28:37.919Z,18.70
2019-02-06T01:29:09.101Z,17.73
2019-02-06T01:29:40.302Z,19.87
2019-02-06T01:30:11.535Z,18.67
2019-02-06T01:30:42.737Z,18.27
2019-02-06T01:31:14.010Z,19.37
2019-02-06T01:31:45.225Z,19.23
2019-02-06T01:32:16.438Z,19.25
2019-02-06T01:32:47.694Z,19.62
2019-02-06T01:33:19.170Z,19.32
2019-02-06T01:33:50.401Z,20.43
2019-02-06T01:34:21.692Z,24.43
2019-02-06T01:34:52.879Z,26.37
2019-02-06T01:35:24.139Z,25.08
2019-02-06T01:35:55.320Z,23.77
2019-02-06T01:36:26.528Z,24.27
2019-02-06T01:36:57.742Z,26.07
2019-02-06T01:37:28.949Z,26.70
2019-02-06T01:38:00.186Z,26.70
2019-02-06T01:38:31.402Z,26.07
2019-02-06T01:39:02.996Z,26.52
2019-02-06T01:39:34.243Z,24.18
2019-02-06T01:40:05.445Z,25.25
2019-02-06T01:40:36.657Z,25.30
2019-02-06T01:41:07.871Z,25.40
2019-02-06T01:41:39.387Z,21.93
2019-02-06T01:42:10.646Z,24.45
2019-02-06T01:42:41.874Z,26.60
2019-02-06T01:43:13.111Z,27.85
2019-02-06T01:43:44.527Z,29.82
2019-02-06T01:44:15.745Z,29.07
2019-02-06T01:44:47.240Z,28.50
2019-02-06T01:45:18.470Z,28.20
2019-02-06T01:45:49.850Z,28.70
2019-02-06T01:46:21.010Z,28.42
2019-02-06T01:46:52.230Z,27.02
2019-02-06T01:47:23.494Z,27.95
2019-02-06T01:47:54.773Z,28.27
2019-02-06T01:48:25.982Z,29.27
2019-02-06T01:48:57.205Z,30.15
2019-02-06T01:49:28.867Z,30.27
2019-02-06T01:50:00.303Z,29.75
2019-02-06T01:50:31.477Z,29.37
2019-02-06T01:51:02.709Z,30.02
2019-02-06T01:51:33.927Z,30.40
2019-02-06T01:52:05.180Z,27.73
2019-02-06T01:52:36.468Z,27.27
2019-02-06T01:53:07.677Z,28.73
2019-02-06T01:53:38.884Z,28.35
2019-02-06T01:54:10.089Z,27.45
2019-02-06T01:54:41.349Z,28.52
2019-02-06T01:55:13.037Z,28.38
2019-02-06T01:55:44.245Z,28.73
2019-02-06T01:56:15.480Z,28.12
2019-02-06T01:56:46.712Z,28.23
2019-02-06T01:57:17.949Z,29.02
2019-02-06T01:57:49.167Z,28.07
2019-02-06T01:58:20.380Z,28.45
2019-02-06T01:58:51.579Z,27.50
2019-02-06T01:59:22.794Z,28.90
2019-02-06T01:59:54.045Z,27.77
2019-02-06T02:00:25.239Z,28.12
2019-02-06T02:00:56.783Z,28.27
2019-02-06T02:01:27.988Z,28.15
2019-02-06T02:01:59.201Z,28.92
2019-02-06T02:02:30.426Z,28.65
2019-02-06T02:03:01.628Z,30.30
2019-02-06T02:03:32.847Z,29.55
2019-02-06T02:04:04.027Z,30.08
2019-02-06T02:04:35.253Z,30.45
2019-02-06T02:05:06.500Z,31.40
2019-02-06T02:05:38.109Z,30.02
2019-02-06T02:06:09.312Z,29.65
2019-02-06T02:06:40.539Z,31.15
2019-02-06T02:07:11.751Z,30.17
2019-02-06T02:07:42.972Z,31.95
2019-02-06T02:08:14.178Z,30.75
2019-02-06T02:08:45.411Z,31.65
2019-02-06T02:09:16.631Z,31.77
2019-02-06T02:09:47.841Z,31.60
2019-02-06T02:10:19.071Z,30.55
2019-02-06T02:10:50.326Z,30.68
2019-02-06T02:11:21.712Z,30.40
2019-02-06T02:11:52.935Z,30.90
2019-02-06T02:12:24.220Z,30.40
2019-02-06T02:12:55.427Z,30.77
2019-02-06T02:13:26.655Z,31.95
2019-02-06T02:13:57.861Z,32.70
2019-02-06T02:14:29.061Z,31.02
2019-02-06T02:15:00.334Z,32.10
2019-02-06T02:15:31.584Z,30.32
2019-02-06T02:16:02.807Z,31.00
2019-02-06T02:16:34.014Z,33.30
2019-02-06T02:17:05.617Z,31.30
2019-02-06T02:17:36.824Z,32.13
2019-02-06T02:18:08.055Z,32.75
2019-02-06T02:18:39.327Z,33.35
2019-02-06T02:19:10.539Z,32.65
2019-02-06T02:19:41.749Z,34.30
2019-02-06T02:20:12.977Z,33.18
2019-02-06T02:20:44.197Z,32.83
2019-02-06T02:21:15.399Z,33.13
2019-02-06T02:21:46.624Z,33.48
2019-02-06T02:22:17.919Z,35.55
2019-02-06T02:22:49.621Z,35.85
2019-02-06T02:23:20.849Z,35.83
2019-02-06T02:23:52.109Z,36.45
2019-02-06T02:24:23.374Z,35.15
2019-02-06T02:24:54.613Z,35.15
2019-02-06T02:25:25.835Z,35.65
2019-02-06T02:25:57.051Z,35.50
2019-02-06T02:26:28.285Z,35.17
2019-02-06T02:26:59.528Z,34.03
2019-02-06T02:27:30.785Z,33.23
2019-02-06T02:28:01.984Z,33.40
2019-02-06T02:28:33.675Z,33.70
2019-02-06T02:29:04.897Z,34.10
2019-02-06T02:29:36.127Z,33.38
2019-02-06T02:30:07.365Z,35.45
2019-02-06T02:30:38.611Z,34.10
2019-02-06T02:31:09.799Z,34.35
2019-02-06T02:31:41.048Z,35.68
2019-02-06T02:32:12.317Z,35.73
2019-02-06T02:32:43.530Z,37.15
2019-02-06T02:33:14.740Z,36.65
2019-02-06T02:33:46.024Z,31.55
2019-02-06T02:34:17.723Z,33.25
2019-02-06T02:34:49.076Z,32.35
2019-02-06T02:35:20.285Z,34.40
2019-02-06T02:35:51.492Z,33.60
2019-02-06T02:36:22.702Z,32.98
2019-02-06T02:36:53.945Z,31.50
2019-02-06T02:37:26.208Z,30.10
2019-02-06T02:37:57.435Z,31.65
2019-02-06T02:38:28.662Z,30.40
2019-02-06T02:38:59.883Z,31.30
2019-02-06T02:39:31.095Z,30.00
2019-02-06T02:40:02.783Z,31.10
2019-02-06T02:40:33.989Z,28.77
2019-02-06T02:41:05.212Z,29.30
2019-02-06T02:41:36.455Z,30.32
2019-02-06T02:42:07.661Z,30.23
2019-02-06T02:42:38.934Z,26.55
2019-02-06T02:43:10.147Z,28.30
2019-02-06T02:43:41.357Z,27.10
2019-02-06T02:44:13.003Z,29.25
2019-02-06T02:44:44.206Z,29.95
2019-02-06T02:45:15.424Z,30.00
2019-02-06T02:45:47.172Z,28.02
2019-02-06T02:46:18.392Z,27.98
2019-02-06T02:46:49.595Z,28.77
2019-02-06T02:47:20.854Z,28.20
2019-02-06T02:47:52.074Z,29.10
2019-02-06T02:48:23.274Z,27.40
2019-02-06T02:48:54.512Z,27.60
2019-02-06T02:49:25.711Z,28.70
2019-02-06T02:49:56.962Z,29.18
2019-02-06T02:50:28.470Z,28.52
2019-02-06T02:50:59.666Z,27.50
2019-02-06T02:51:30.979Z,27.27
2019-02-06T02:52:02.176Z,28.55
2019-02-06T02:52:33.407Z,27.15
2019-02-06T02:53:04.617Z,28.98
2019-02-06T02:53:35.828Z,27.52
2019-02-06T02:54:07.051Z,29.35
2019-02-06T02:54:38.278Z,27.85
2019-02-06T02:55:09.508Z,28.95
2019-02-06T02:55:40.724Z,28.95
2019-02-06T02:56:12.262Z,29.82
2019-02-06T02:56:43.480Z,31.23
2019-02-06T02:57:14.725Z,30.45
2019-02-06T02:57:45.931Z,29.80
2019-02-06T02:58:17.133Z,29.52
2019-02-06T02:58:48.361Z,30.30
2019-02-06T02:59:19.645Z,29.45
2019-02-06T02:59:50.851Z,30.12
2019-02-06T03:00:22.064Z,29.30
2019-02-06T03:00:53.280Z,29.92
2019-02-06T03:01:24.507Z,28.00
2019-02-06T03:01:56.126Z,28.90
2019-02-06T03:02:27.350Z,28.57
2019-02-06T03:02:58.582Z,27.62
2019-02-06T03:03:29.797Z,29.80
2019-02-06T03:04:01.021Z,30.43
2019-02-06T03:04:32.245Z,28.62
2019-02-06T03:05:03.476Z,28.77
2019-02-06T03:05:35.078Z,28.12
2019-02-06T03:06:06.296Z,29.02
2019-02-06T03:06:37.500Z,27.87
2019-02-06T03:07:08.746Z,28.02
2019-02-06T03:07:40.220Z,26.87
2019-02-06T03:08:11.432Z,28.07
2019-02-06T03:08:42.645Z,28.25
2019-02-06T03:09:13.843Z,29.15
2019-02-06T03:09:45.055Z,28.50
2019-02-06T03:10:16.280Z,28.75
2019-02-06T03:10:47.538Z,28.57
2019-02-06T03:11:18.746Z,28.02
2019-02-06T03:11:50.001Z,28.02
2019-02-06T03:12:21.268Z,28.52
2019-02-06T03:12:52.508Z,28.50
2019-02-06T03:13:24.294Z,28.20
2019-02-06T03:13:55.518Z,28.57
2019-02-06T03:14:26.776Z,29.27
2019-02-06T03:14:57.986Z,29.80
2019-02-06T03:15:29.202Z,28.32
2019-02-06T03:16:00.422Z,29.18
2019-02-06T03:16:31.636Z,28.52
2019-02-06T03:17:03.466Z,28.17
2019-02-06T03:17:34.844Z,28.47
2019-02-06T03:18:06.072Z,28.67
2019-02-06T03:18:37.321Z,28.85
2019-02-06T03:19:08.948Z,28.00
2019-02-06T03:19:40.207Z,27.82
2019-02-06T03:20:11.491Z,29.20
2019-02-06T03:20:42.739Z,29.65
2019-02-06T03:21:13.960Z,27.07
2019-02-06T03:21:45.195Z,25.65
2019-02-06T03:22:16.423Z,26.77
2019-02-06T03:22:47.653Z,27.40
2019-02-06T03:23:18.854Z,27.93
2019-02-06T03:23:50.307Z,28.50
2019-02-06T03:24:21.559Z,28.52
2019-02-06T03:24:53.174Z,29.12
2019-02-06T03:25:24.377Z,30.52
2019-02-06T03:25:55.597Z,29.75
2019-02-06T03:26:26.801Z,30.00
2019-02-06T03:26:58.008Z,29.27
2019-02-06T03:27:29.228Z,30.35
2019-02-06T03:28:00.456Z,29.50
2019-02-06T03:28:31.732Z,29.15
2019-02-06T03:29:02.955Z,30.27
2019-02-06T03:29:34.466Z,30.27
2019-02-06T03:30:05.689Z,30.43
2019-02-06T03:30:37.049Z,28.77
2019-02-06T03:31:08.267Z,30.12
2019-02-06T03:31:39.471Z,29.57
2019-02-06T03:32:10.704Z,29.20
2019-02-06T03:32:41.909Z,29.95
2019-02-06T03:33:13.198Z,29.45
2019-02-06T03:33:44.403Z,29.18
2019-02-06T03:34:15.612Z,28.80
2019-02-06T03:34:46.887Z,29.75
2019-02-06T03:35:18.375Z,28.55
2019-02-06T03:35:49.609Z,29.37
2019-02-06T03:36:20.828Z,30.40
2019-02-06T03:36:52.032Z,29.72
2019-02-06T03:37:23.253Z,30.48
2019-02-06T03:37:54.462Z,28.57
2019-02-06T03:38:25.673Z,29.23
2019-02-06T03:38:56.901Z,28.27
2019-02-06T03:39:28.148Z,29.77
2019-02-06T03:39:59.421Z,29.92
2019-02-06T03:40:30.649Z,28.10
2019-02-06T03:41:02.143Z,29.42
2019-02-06T03:41:33.372Z,30.77
2019-02-06T03:42:04.581Z,29.63
2019-02-06T03:42:35.814Z,31.12
2019-02-06T03:43:07.036Z,29.35
2019-02-06T03:43:38.293Z,29.80
2019-02-06T03:44:09.503Z,29.82
2019-02-06T03:44:40.738Z,29.48
2019-02-06T03:45:12.050Z,28.83
2019-02-06T03:45:43.306Z,29.52
2019-02-06T03:46:14.530Z,29.50
2019-02-06T03:46:46.137Z,30.00
2019-02-06T03:47:17.349Z,29.20
2019-02-06T03:47:48.608Z,29.32
2019-02-06T03:48:19.804Z,27.22
2019-02-06T03:48:51.026Z,28.62
2019-02-06T03:49:22.262Z,28.85
2019-02-06T03:49:53.494Z,29.12
2019-02-06T03:50:24.757Z,27.67
2019-02-06T03:50:55.979Z,26.50
2019-02-06T03:51:27.370Z,27.50
2019-02-06T03:51:58.590Z,27.32
2019-02-06T03:52:29.792Z,26.75
2019-02-06T03:53:01.183Z,28.10
2019-02-06T03:53:32.433Z,27.87
2019-02-06T03:54:03.669Z,27.70
2019-02-06T03:54:34.901Z,27.73
2019-02-06T03:55:06.158Z,28.42
2019-02-06T03:55:37.417Z,27.37
2019-02-06T03:56:08.666Z,28.20
2019-02-06T03:56:39.878Z,28.60
2019-02-06T03:57:11.163Z,26.80
2019-02-06T03:57:42.363Z,29.15
2019-02-06T03:58:13.636Z,28.73
2019-02-06T03:58:44.908Z,28.15
2019-02-06T03:59:16.119Z,29.07
2019-02-06T03:59:47.338Z,28.02
2019-02-06T04:00:18.562Z,28.65
2019-02-06T04:00:49.785Z,29.10
2019-02-06T04:01:20.980Z,29.18
2019-02-06T04:01:52.265Z,29.85
2019-02-06T04:02:23.477Z,29.52
2019-02-06T04:02:55.060Z,29.65
2019-02-06T04:03:26.306Z,30.00
2019-02-06T04:03:57.514Z,30.57
2019-02-06T04:04:28.750Z,28.50
2019-02-06T04:04:59.974Z,28.45
2019-02-06T04:05:31.206Z,27.75
2019-02-06T04:06:02.409Z,27.13
2019-02-06T04:06:33.622Z,29.45
2019-02-06T04:07:04.958Z,30.23
2019-02-06T04:07:36.198Z,30.60
2019-02-06T04:08:07.421Z,29.55
2019-02-06T04:08:39.122Z,30.27
2019-02-06T04:09:10.330Z,28.87
2019-02-06T04:09:41.569Z,29.07
2019-02-06T04:10:12.789Z,29.60
2019-02-06T04:10:44.025Z,28.07
2019-02-06T04:11:15.238Z,28.17
2019-02-06T04:11:46.508Z,27.95
2019-02-06T04:12:17.753Z,28.27
2019-02-06T04:12:48.978Z,28.17
2019-02-06T04:13:20.420Z,28.70
2019-02-06T04:13:51.609Z,29.25
2019-02-06T04:14:23.227Z,28.40
2019-02-06T04:14:54.441Z,30.82
2019-02-06T04:15:25.709Z,28.77
2019-02-06T04:15:56.981Z,30.48
2019-02-06T04:16:28.201Z,29.15
2019-02-06T04:16:59.425Z,29.40
2019-02-06T04:17:30.635Z,29.67
2019-02-06T04:18:01.844Z,28.47
2019-02-06T04:18:33.083Z,26.55
2019-02-06T04:19:04.494Z,28.35
2019-02-06T04:19:35.727Z,29.87
2019-02-06T04:20:08.677Z,28.23
2019-02-06T04:20:39.880Z,30.75
2019-02-06T04:21:11.089Z,28.70
2019-02-06T04:21:42.292Z,29.87
2019-02-06T04:22:14.205Z,30.43
2019-02-06T04:22:45.496Z,30.45
2019-02-06T04:23:16.698Z,30.27
2019-02-06T04:23:47.903Z,30.40
2019-02-06T04:24:19.106Z,28.77
2019-02-06T04:24:51.698Z,26.70
2019-02-06T04:25:23.091Z,29.52
2019-02-06T04:25:54.592Z,28.32
2019-02-06T04:26:25.805Z,29.80
2019-02-06T04:26:57.062Z,31.90
2019-02-06T04:27:28.345Z,30.17
2019-02-06T04:27:59.574Z,27.77
2019-02-06T04:28:30.781Z,26.80
2019-02-06T04:29:01.995Z,27.02
2019-02-06T04:29:33.201Z,28.52
2019-02-06T04:30:04.434Z,28.25
2019-02-06T04:30:35.685Z,29.18
2019-02-06T04:31:06.895Z,29.57
2019-02-06T04:31:38.501Z,30.82
2019-02-06T04:32:09.738Z,30.68
2019-02-06T04:32:40.994Z,31.25
2019-02-06T04:33:12.208Z,29.12
2019-02-06T04:33:43.417Z,27.93
2019-02-06T04:34:14.673Z,27.65
2019-02-06T04:34:45.920Z,29.00
2019-02-06T04:35:17.136Z,27.50
2019-02-06T04:35:48.360Z,27.35
2019-02-06T04:36:19.560Z,27.45
2019-02-06T04:36:50.765Z,29.67
2019-02-06T04:37:22.350Z,27.70
2019-02-06T04:37:53.564Z,26.10
2019-02-06T04:38:24.772Z,26.25
2019-02-06T04:38:55.996Z,28.02
2019-02-06T04:39:27.251Z,26.50
2019-02-06T04:39:58.459Z,26.82
2019-02-06T04:40:29.671Z,29.10
2019-02-06T04:41:00.894Z,29.42
2019-02-06T04:41:32.110Z,30.00
2019-02-06T04:42:03.511Z,31.37
2019-02-06T04:42:34.728Z,30.77
2019-02-06T04:43:06.247Z,30.70
2019-02-06T04:43:37.428Z,31.25
2019-02-06T04:44:08.657Z,28.85
2019-02-06T04:44:39.985Z,29.07
2019-02-06T04:45:11.174Z,28.67
2019-02-06T04:45:42.453Z,28.55
2019-02-06T04:46:13.724Z,29.00
2019-02-06T04:46:44.928Z,30.27
2019-02-06T04:47:16.222Z,31.35
2019-02-06T04:47:47.715Z,30.60
2019-02-06T04:48:18.924Z,30.65
2019-02-06T04:48:50.122Z,31.42
2019-02-06T04:49:21.328Z,31.30
2019-02-06T04:49:52.541Z,30.12
2019-02-06T04:50:23.739Z,29.77
2019-02-06T04:50:55.006Z,26.70
2019-02-06T04:51:26.233Z,27.42
2019-02-06T04:51:57.425Z,28.35
2019-02-06T04:52:28.624Z,30.00
2019-02-06T04:52:59.853Z,29.32
2019-02-06T04:53:31.530Z,29.95
2019-02-06T04:54:02.922Z,33.70
2019-02-06T04:54:34.121Z,28.70
2019-02-06T04:55:05.346Z,27.37
2019-02-06T04:55:36.556Z,26.20
2019-02-06T04:56:07.790Z,26.37
2019-02-06T04:56:38.998Z,26.75
2019-02-06T04:57:10.215Z,25.15
2019-02-06T04:57:41.449Z,25.60
2019-02-06T04:58:12.675Z,26.20
2019-02-06T04:58:43.908Z,26.30
2019-02-06T04:59:15.497Z,25.48
2019-02-06T04:59:46.704Z,27.50
2019-02-06T05:00:17.910Z,27.50
2019-02-06T05:00:49.134Z,28.90
2019-02-06T05:01:20.395Z,29.02
2019-02-06T05:01:51.617Z,28.15
2019-02-06T05:02:22.811Z,27.30
2019-02-06T05:02:54.015Z,29.82
2019-02-06T05:03:25.779Z,28.65
2019-02-06T05:03:57.323Z,28.55
2019-02-06T05:04:28.579Z,29.98
2019-02-06T05:05:00.275Z,29.98
2019-02-06T05:05:31.459Z,29.75
2019-02-06T05:06:02.656Z,30.00
2019-02-06T05:06:33.865Z,30.30
2019-02-06T05:07:05.075Z,29.85
2019-02-06T05:07:36.295Z,30.27
2019-02-06T05:08:07.586Z,30.17
2019-02-06T05:08:38.806Z,30.30
2019-02-06T05:09:10.038Z,28.57
2019-02-06T05:09:41.394Z,32.00
2019-02-06T05:10:12.608Z,29.75
2019-02-06T05:10:43.852Z,30.12
2019-02-06T05:11:15.070Z,31.90
2019-02-06T05:11:46.351Z,32.35
2019-02-06T05:12:17.572Z,31.20
2019-02-06T05:12:48.783Z,31.05
2019-02-06T05:13:20.047Z,30.60
2019-02-06T05:13:51.286Z,31.10
2019-02-06T05:14:22.505Z,31.37
2019-02-06T05:14:53.719Z,32.63
2019-02-06T05:15:25.113Z,33.38
2019-02-06T05:15:56.327Z,33.40
2019-02-06T05:16:27.538Z,31.50
2019-02-06T05:16:58.805Z,32.53
2019-02-06T05:17:30.385Z,32.40
2019-02-06T05:18:01.595Z,33.23
2019-02-06T05:18:32.792Z,32.60
2019-02-06T05:19:04.010Z,32.03
2019-02-06T05:19:35.228Z,32.75
2019-02-06T05:20:06.455Z,33.10
2019-02-06T05:20:37.678Z,34.10
2019-02-06T05:21:10.122Z,33.75
2019-02-06T05:21:41.306Z,33.90
2019-02-06T05:22:12.537Z,34.05
2019-02-06T05:22:43.786Z,34.13
2019-02-06T05:23:15.010Z,34.00
2019-02-06T05:23:46.237Z,32.45
2019-02-06T05:24:17.448Z,32.55
2019-02-06T05:24:48.654Z,32.53
2019-02-06T05:25:19.873Z,32.80
2019-02-06T05:25:51.195Z,34.35
2019-02-06T05:26:22.413Z,34.70
2019-02-06T05:26:54.004Z,33.48
2019-02-06T05:27:25.258Z,34.05
2019-02-06T05:27:56.467Z,35.30
2019-02-06T05:28:27.692Z,34.40
2019-02-06T05:28:58.961Z,34.83
2019-02-06T05:29:30.179Z,35.83
2019-02-06T05:30:01.392Z,34.35
2019-02-06T05:30:32.647Z,35.63
2019-02-06T05:31:03.854Z,33.85
2019-02-06T05:31:35.358Z,34.38
2019-02-06T05:32:06.564Z,33.78
2019-02-06T05:32:42.791Z,33.95
2019-02-06T05:33:10.704Z,33.13
2019-02-06T05:33:41.989Z,34.60
2019-02-06T05:34:13.198Z,34.40
2019-02-06T05:34:44.415Z,28.20
2019-02-06T05:35:15.680Z,32.88
2019-02-06T05:35:46.895Z,32.60
2019-02-06T05:36:18.127Z,31.68
2019-02-06T05:36:50.990Z,31.10
2019-02-06T05:37:31.663Z,30.82
2019-02-06T05:37:55.720Z,31.60
2019-02-06T05:38:27.410Z,30.23
2019-02-06T05:38:58.612Z,31.05
2019-02-06T05:39:29.829Z,30.35
2019-02-06T05:40:01.031Z,30.82
2019-02-06T05:40:32.288Z,30.12
2019-02-06T05:41:03.515Z,30.15
2019-02-06T05:41:34.750Z,30.65
2019-02-06T05:42:05.956Z,29.87
2019-02-06T05:42:37.167Z,30.00
2019-02-06T05:43:08.648Z,30.70
2019-02-06T05:43:39.867Z,30.60
2019-02-06T05:44:11.080Z,28.62
2019-02-06T05:44:42.299Z,30.43
2019-02-06T05:45:13.509Z,29.72
2019-02-06T05:45:44.773Z,30.60
2019-02-06T05:46:15.986Z,28.77
2019-02-06T05:46:47.192Z,30.40
2019-02-06T05:47:18.418Z,28.42
2019-02-06T05:47:49.620Z,28.77
2019-02-06T05:48:20.823Z,29.18
2019-02-06T05:48:52.527Z,27.93
2019-02-06T05:49:23.749Z,29.70
2019-02-06T05:49:55.027Z,30.02
2019-02-06T05:50:26.221Z,29.37
2019-02-06T05:50:57.428Z,30.37
2019-02-06T05:51:28.637Z,30.52
2019-02-06T05:51:59.910Z,31.23
2019-02-06T05:52:31.106Z,30.55
2019-02-06T05:53:02.357Z,30.60
2019-02-06T05:53:33.579Z,30.50
2019-02-06T05:54:04.792Z,30.72
2019-02-06T05:54:36.388Z,31.93
2019-02-06T05:55:07.622Z,31.00
2019-02-06T05:55:38.811Z,32.08
2019-02-06T05:56:10.027Z,31.87
2019-02-06T05:56:41.249Z,32.05
2019-02-06T05:57:12.497Z,33.10
2019-02-06T05:57:43.810Z,33.08
2019-02-06T05:58:15.061Z,32.95
2019-02-06T05:58:46.267Z,34.08
2019-02-06T05:59:17.651Z,33.48
2019-02-06T05:59:48.878Z,33.53
2019-02-06T06:00:20.161Z,33.30
2019-02-06T06:00:51.415Z,34.10
2019-02-06T06:01:22.630Z,33.13
2019-02-06T06:01:53.857Z,33.70
2019-02-06T06:02:25.064Z,33.78
2019-02-06T06:02:56.284Z,30.10
2019-02-06T06:03:27.491Z,30.00
2019-02-06T06:03:58.707Z,30.12
2019-02-06T06:04:29.905Z,30.00
2019-02-06T06:05:01.392Z,28.70
2019-02-06T06:05:32.647Z,28.05
2019-02-06T06:06:03.863Z,29.95
2019-02-06T06:06:35.077Z,29.75
2019-02-06T06:07:06.288Z,30.30
2019-02-06T06:07:45.253Z,28.98
2019-02-06T06:08:10.523Z,29.80
2019-02-06T06:08:41.736Z,30.05
2019-02-06T06:09:12.961Z,30.68
2019-02-06T06:09:44.159Z,29.63
2019-02-06T06:10:15.385Z,29.67
2019-02-06T06:10:47.151Z,28.70
2019-02-06T06:11:18.343Z,30.68
2019-02-06T06:11:49.635Z,29.52
2019-02-06T06:12:20.853Z,29.32
2019-02-06T06:12:52.074Z,28.42
2019-02-06T06:13:23.322Z,29.67
2019-02-06T06:13:54.572Z,29.23
2019-02-06T06:14:25.832Z,30.00
2019-02-06T06:14:57.060Z,28.47
2019-02-06T06:15:28.612Z,29.10
2019-02-06T06:15:59.827Z,29.65
2019-02-06T06:16:31.135Z,29.30
2019-02-06T06:17:02.329Z,31.10
2019-02-06T06:17:33.581Z,30.12
2019-02-06T06:18:04.806Z,29.98
2019-02-06T06:18:36.066Z,30.55
2019-02-06T06:19:07.303Z,30.65
2019-02-06T06:19:38.513Z,29.90
2019-02-06T06:20:09.725Z,29.05
2019-02-06T06:20:40.979Z,30.68
2019-02-06T06:21:12.646Z,30.23
2019-02-06T06:21:43.870Z,31.23
2019-02-06T06:22:15.136Z,30.57
2019-02-06T06:22:46.325Z,29.42
2019-02-06T06:23:17.529Z,31.20
2019-02-06T06:23:48.732Z,30.68
2019-02-06T06:24:19.977Z,30.48
2019-02-06T06:24:51.214Z,29.70
2019-02-06T06:25:22.409Z,31.45
2019-02-06T06:25:53.665Z,30.80
2019-02-06T06:26:24.867Z,30.23
2019-02-06T06:26:56.247Z,30.08
2019-02-06T06:27:27.458Z,29.50
2019-02-06T06:27:58.692Z,29.70
2019-02-06T06:28:29.891Z,27.55
2019-02-06T06:29:01.100Z,30.55
2019-02-06T06:29:32.303Z,28.67
2019-02-06T06:30:03.518Z,28.87
2019-02-06T06:30:34.729Z,29.98
2019-02-06T06:31:06.001Z,30.32
2019-02-06T06:31:37.576Z,30.52
2019-02-06T06:32:08.823Z,29.52
2019-02-06T06:32:40.071Z,30.37
2019-02-06T06:33:12.250Z,28.87
2019-02-06T06:33:43.466Z,29.65
2019-02-06T06:34:14.678Z,31.25
2019-02-06T06:34:46.003Z,30.95
2019-02-06T06:35:17.220Z,31.07
2019-02-06T06:35:48.476Z,30.82
2019-02-06T06:36:19.672Z,30.55
2019-02-06T06:36:50.942Z,30.68
2019-02-06T06:37:22.344Z,30.25
2019-02-06T06:38:01.930Z,30.90
2019-02-06T06:38:26.485Z,31.57
2019-02-06T06:38:57.743Z,31.52
2019-02-06T06:39:28.975Z,31.73
2019-02-06T06:40:00.252Z,31.00
2019-02-06T06:40:31.447Z,30.60
2019-02-06T06:41:02.644Z,30.90
2019-02-06T06:41:33.857Z,31.55
2019-02-06T06:42:05.105Z,29.85
2019-02-06T06:42:36.314Z,30.97
2019-02-06T06:43:07.712Z,29.95